createdAt,value
2018-07-19T00:00:27.828Z,0.00
2018-07-19T00:01:27.815Z,0.00
2018-07-19T00:02:27.806Z,0.00
2018-07-19T00:03:27.796Z,0.00
2018-07-19T00:04:27.781Z,0.00
2018-07-19T00:05:27.785Z,0.00
2018-07-19T00:06:27.762Z,0.00
2018-07-19T00:07:27.750Z,0.00
2018-07-19T00:08:27.738Z,0.00
2018-07-19T00:09:27.730Z,0.00
2018-07-19T00:10:27.730Z,0.00
2018-07-19T00:11:27.707Z,0.00
2018-07-19T00:12:27.702Z,0.00
2018-07-19T00:13:27.687Z,0.00
2018-07-19T00:14:27.674Z,0.00
2018-07-19T00:15:27.676Z,0.00
2018-07-19T00:16:27.695Z,0.00
2018-07-19T00:17:27.643Z,0.00
2018-07-19T00:18:27.633Z,0.00
2018-07-19T00:19:27.618Z,0.00
2018-07-19T00:20:27.609Z,0.00
2018-07-19T00:21:27.595Z,0.00
2018-07-19T00:22:27.606Z,0.00
2018-07-19T00:23:27.574Z,0.00
2018-07-19T00:24:27.564Z,0.00
2018-07-19T00:25:27.551Z,0.00
2018-07-19T00:26:27.540Z,0.00
2018-07-19T00:27:27.528Z,0.00
2018-07-19T00:28:27.534Z,0.00
2018-07-19T00:29:27.505Z,0.00
2018-07-19T00:30:27.499Z,0.00
2018-07-19T00:31:27.488Z,0.00
2018-07-19T00:32:27.493Z,0.00
2018-07-19T00:33:27.465Z,0.00
2018-07-19T00:34:27.455Z,0.00
2018-07-19T00:35:27.440Z,0.00
2018-07-19T00:36:27.431Z,0.00
2018-07-19T00:37:27.423Z,0.00
2018-07-19T00:38:27.438Z,0.00
2018-07-19T00:39:27.406Z,0.00
2018-07-19T00:40:27.389Z,0.00
2018-07-19T00:41:27.376Z,0.00
2018-07-19T00:42:27.368Z,0.00
2018-07-19T00:43:27.354Z,0.00
2018-07-19T00:44:27.357Z,0.00
2018-07-19T00:45:27.335Z,0.00
2018-07-19T00:46:27.325Z,0.00
2018-07-19T00:47:27.311Z,0.00
2018-07-19T00:48:27.303Z,0.00
2018-07-19T00:49:27.308Z,0.00
2018-07-19T00:50:27.283Z,0.00
2018-07-19T00:51:27.275Z,0.00
2018-07-19T00:52:27.257Z,0.00
2018-07-19T00:53:27.248Z,0.00
2018-07-19T00:54:27.238Z,0.00
2018-07-19T00:55:27.243Z,0.00
2018-07-19T00:56:27.219Z,0.00
2018-07-19T00:57:27.207Z,0.00
2018-07-19T00:58:27.196Z,0.00
2018-07-19T00:59:27.207Z,0.00
2018-07-19T01:00:27.176Z,0.00
2018-07-19T01:01:27.164Z,0.00
2018-07-19T01:02:27.157Z,0.00
2018-07-19T01:03:27.146Z,0.00
2018-07-19T01:04:27.136Z,0.00
2018-07-19T01:05:27.137Z,0.00
2018-07-19T01:06:27.115Z,0.00
2018-07-19T01:07:27.102Z,0.00
2018-07-19T01:08:27.092Z,0.00
2018-07-19T01:09:27.086Z,0.00
2018-07-19T01:10:27.088Z,0.00
2018-07-19T01:11:27.060Z,0.00
2018-07-19T01:12:27.055Z,0.00
2018-07-19T01:13:27.036Z,0.00
2018-07-19T01:14:27.028Z,0.00
2018-07-19T01:15:27.054Z,0.00
2018-07-19T01:16:27.021Z,0.00
2018-07-19T01:17:26.995Z,0.00
2018-07-19T01:18:26.981Z,0.00
2018-07-19T01:19:26.972Z,0.00
2018-07-19T01:20:26.975Z,0.00
2018-07-19T01:21:26.952Z,0.00
2018-07-19T01:22:26.957Z,0.00
2018-07-19T01:23:26.929Z,0.00
2018-07-19T01:24:26.918Z,0.00
2018-07-19T01:25:26.927Z,0.00
2018-07-19T01:26:26.900Z,0.00
2018-07-19T01:27:26.886Z,0.00
2018-07-19T01:28:27.711Z,0.00
2018-07-19T01:29:26.864Z,0.00
2018-07-19T01:30:26.856Z,0.00
2018-07-19T01:31:26.844Z,0.00
2018-07-19T01:32:26.851Z,0.00
2018-07-19T01:33:26.822Z,0.00
2018-07-19T01:34:26.808Z,0.00
2018-07-19T01:35:26.797Z,0.00
2018-07-19T01:36:26.789Z,0.00
2018-07-19T01:37:26.779Z,0.00
2018-07-19T01:38:26.779Z,0.00
2018-07-19T01:39:26.759Z,0.00
2018-07-19T01:40:26.746Z,0.00
2018-07-19T01:41:26.732Z,0.00
2018-07-19T01:42:26.756Z,0.00
2018-07-19T01:43:26.710Z,0.00
2018-07-19T01:44:26.701Z,0.00
2018-07-19T01:45:26.691Z,0.00
2018-07-19T01:46:26.679Z,0.00
2018-07-19T01:47:26.669Z,0.00
2018-07-19T01:48:26.672Z,0.00
2018-07-19T01:49:26.647Z,0.00
2018-07-19T01:50:26.647Z,0.00
2018-07-19T01:51:26.626Z,0.00
2018-07-19T01:52:26.615Z,0.00
2018-07-19T01:53:26.626Z,0.00
2018-07-19T01:54:26.595Z,0.00
2018-07-19T01:55:26.582Z,0.00
2018-07-19T01:56:26.571Z,0.00
2018-07-19T01:57:26.556Z,0.00
2018-07-19T01:58:26.549Z,0.00
2018-07-19T01:59:26.551Z,0.00
2018-07-19T02:00:26.524Z,0.00
2018-07-19T02:01:26.513Z,0.00
2018-07-19T02:02:26.517Z,0.00
2018-07-19T02:03:26.492Z,0.00
2018-07-19T02:04:26.480Z,0.00
2018-07-19T02:05:26.487Z,0.00
2018-07-19T02:06:26.462Z,0.00
2018-07-19T02:07:26.452Z,0.00
2018-07-19T02:08:26.437Z,0.00
2018-07-19T02:09:26.470Z,0.00
2018-07-19T02:10:26.417Z,0.00
2018-07-19T02:11:26.407Z,0.00
2018-07-19T02:12:26.393Z,0.00
2018-07-19T02:13:26.386Z,0.00
2018-07-19T02:14:26.377Z,0.00
2018-07-19T02:15:26.383Z,0.00
2018-07-19T02:16:26.350Z,0.00
2018-07-19T02:17:26.340Z,0.00
2018-07-19T02:18:26.329Z,0.00
2018-07-19T02:19:26.320Z,0.00
2018-07-19T02:20:26.308Z,0.00
2018-07-19T02:21:26.315Z,0.00
2018-07-19T02:22:26.289Z,0.00
2018-07-19T02:23:26.278Z,0.00
2018-07-19T02:24:26.273Z,0.00
2018-07-19T02:25:26.259Z,0.00
2018-07-19T02:26:26.260Z,0.00
2018-07-19T02:27:26.234Z,0.00
2018-07-19T02:28:26.224Z,0.00
2018-07-19T02:29:26.214Z,0.00
2018-07-19T02:30:26.201Z,0.00
2018-07-19T02:31:26.212Z,0.00
2018-07-19T02:32:26.180Z,0.00
2018-07-19T02:33:26.169Z,0.00
2018-07-19T02:34:26.156Z,0.00
2018-07-19T02:35:26.148Z,0.00
2018-07-19T02:36:26.139Z,0.00
2018-07-19T02:37:26.140Z,0.00
2018-07-19T02:38:26.130Z,0.00
2018-07-19T02:39:26.106Z,0.00
2018-07-19T02:40:26.095Z,0.00
2018-07-19T02:41:26.088Z,0.00
2018-07-19T02:42:26.089Z,0.00
2018-07-19T02:43:26.063Z,0.00
2018-07-19T02:44:26.053Z,0.00
2018-07-19T02:45:26.045Z,0.00
2018-07-19T02:46:26.035Z,0.00
2018-07-19T02:47:26.038Z,0.00
2018-07-19T02:48:26.037Z,0.00
2018-07-19T02:49:26.004Z,0.00
2018-07-19T02:50:25.992Z,0.00
2018-07-19T02:51:25.981Z,0.00
2018-07-19T02:52:25.971Z,0.00
2018-07-19T02:53:25.958Z,0.00
2018-07-19T02:54:25.962Z,0.00
2018-07-19T02:55:25.938Z,0.00
2018-07-19T02:56:25.930Z,0.00
2018-07-19T02:57:25.917Z,0.00
2018-07-19T02:58:25.933Z,0.00
2018-07-19T02:59:25.896Z,0.00
2018-07-19T03:00:25.886Z,0.00
2018-07-19T03:01:25.874Z,0.00
2018-07-19T03:02:25.863Z,0.00
2018-07-19T03:03:25.858Z,0.00
2018-07-19T03:04:25.856Z,0.00
2018-07-19T03:05:25.833Z,0.00
2018-07-19T03:06:25.881Z,0.00
2018-07-19T03:07:25.816Z,0.00
2018-07-19T03:08:25.801Z,0.00
2018-07-19T03:09:25.814Z,0.00
2018-07-19T03:10:25.780Z,0.00
2018-07-19T03:11:25.769Z,0.00
2018-07-19T03:12:25.759Z,0.00
2018-07-19T03:13:25.748Z,0.00
2018-07-19T03:14:25.740Z,0.00
2018-07-19T03:15:25.744Z,0.00
2018-07-19T03:16:25.717Z,0.00
2018-07-19T03:17:25.722Z,0.00
2018-07-19T03:18:25.700Z,5.62
2018-07-19T03:19:25.691Z,5.62
2018-07-19T03:20:25.692Z,5.62
2018-07-19T03:21:25.665Z,5.62
2018-07-19T03:22:25.656Z,5.62
2018-07-19T03:23:25.647Z,5.62
2018-07-19T03:24:25.634Z,5.62
2018-07-19T03:25:25.637Z,5.62
2018-07-19T03:26:25.612Z,11.25
2018-07-19T03:27:25.601Z,11.25
2018-07-19T03:28:25.592Z,11.25
2018-07-19T03:29:25.584Z,11.25
2018-07-19T03:30:25.584Z,11.25
2018-07-19T03:31:25.564Z,16.88
2018-07-19T03:32:25.566Z,16.88
2018-07-19T03:33:25.541Z,16.88
2018-07-19T03:34:25.530Z,16.88
2018-07-19T03:35:25.521Z,22.50
2018-07-19T03:36:25.524Z,22.50
2018-07-19T03:37:25.497Z,22.50
2018-07-19T03:38:25.488Z,22.50
2018-07-19T03:39:25.479Z,28.12
2018-07-19T03:40:25.467Z,28.12
2018-07-19T03:41:25.472Z,28.12
2018-07-19T03:42:25.467Z,33.75
2018-07-19T03:43:25.436Z,33.75
2018-07-19T03:44:25.429Z,39.38
2018-07-19T03:45:25.416Z,39.38
2018-07-19T03:46:25.405Z,39.38
2018-07-19T03:47:25.394Z,45.00
2018-07-19T03:48:25.408Z,45.00
2018-07-19T03:49:25.377Z,50.62
2018-07-19T03:50:25.367Z,56.25
2018-07-19T03:51:25.350Z,56.25
2018-07-19T03:52:25.341Z,61.88
2018-07-19T03:53:25.328Z,61.88
2018-07-19T03:54:25.332Z,67.50
2018-07-19T03:55:25.307Z,67.50
2018-07-19T03:56:25.297Z,67.50
2018-07-19T03:57:25.290Z,67.50
2018-07-19T03:58:25.288Z,73.12
2018-07-19T03:59:25.268Z,73.12
2018-07-19T04:00:25.257Z,73.12
2018-07-19T04:01:25.246Z,78.75
2018-07-19T04:02:25.234Z,78.75
2018-07-19T04:03:25.265Z,78.75
2018-07-19T04:04:25.243Z,78.75
2018-07-19T04:05:25.201Z,84.38
2018-07-19T04:06:25.192Z,84.38
2018-07-19T04:07:25.186Z,84.38
2018-07-19T04:08:25.173Z,90.00
2018-07-19T04:09:25.184Z,90.00
2018-07-19T04:10:25.152Z,95.62
2018-07-19T04:11:25.140Z,95.62
2018-07-19T04:12:25.128Z,95.62
2018-07-19T04:13:25.118Z,101.25
2018-07-19T04:14:25.109Z,101.25
2018-07-19T04:15:25.110Z,106.88
2018-07-19T04:16:25.085Z,106.88
2018-07-19T04:17:25.074Z,112.50
2018-07-19T04:18:25.066Z,112.50
2018-07-19T04:19:25.069Z,112.50
2018-07-19T04:20:25.045Z,118.12
2018-07-19T04:21:25.030Z,118.12
2018-07-19T04:22:25.026Z,123.75
2018-07-19T04:23:25.012Z,123.75
2018-07-19T04:24:25.020Z,129.38
2018-07-19T04:25:24.990Z,129.38
2018-07-19T04:26:24.981Z,135.00
2018-07-19T04:27:24.970Z,135.00
2018-07-19T04:28:24.961Z,135.00
2018-07-19T04:29:24.950Z,140.62
2018-07-19T04:30:24.949Z,140.62
2018-07-19T04:31:24.926Z,146.25
2018-07-19T04:32:24.995Z,146.25
2018-07-19T04:33:24.906Z,151.88
2018-07-19T04:34:24.895Z,151.88
2018-07-19T04:35:24.898Z,157.50
2018-07-19T04:36:24.872Z,157.50
2018-07-19T04:37:24.864Z,163.12
2018-07-19T04:38:24.851Z,163.12
2018-07-19T04:39:24.843Z,163.12
2018-07-19T04:40:24.844Z,168.75
2018-07-19T04:41:24.820Z,168.75
2018-07-19T04:42:24.810Z,174.38
2018-07-19T04:43:24.805Z,174.38
2018-07-19T04:44:24.809Z,180.00
2018-07-19T04:45:24.781Z,180.00
2018-07-19T04:46:24.771Z,185.62
2018-07-19T04:47:24.756Z,185.62
2018-07-19T04:48:24.749Z,191.25
2018-07-19T04:49:24.739Z,191.25
2018-07-19T04:50:24.762Z,196.88
2018-07-19T04:51:24.716Z,196.88
2018-07-19T04:52:24.706Z,202.50
2018-07-19T04:53:24.696Z,202.50
2018-07-19T04:54:24.682Z,208.12
2018-07-19T04:55:24.673Z,208.12
2018-07-19T04:56:24.680Z,213.75
2018-07-19T04:57:24.651Z,213.75
2018-07-19T04:58:24.645Z,219.38
2018-07-19T04:59:24.633Z,219.38
2018-07-19T05:00:24.622Z,219.38
2018-07-19T05:01:24.608Z,219.38
2018-07-19T05:02:24.607Z,225.00
2018-07-19T05:03:24.591Z,225.00
2018-07-19T05:04:24.576Z,230.62
2018-07-19T05:05:24.567Z,236.25
2018-07-19T05:06:24.564Z,241.88
2018-07-19T05:07:24.543Z,241.88
2018-07-19T05:08:24.535Z,247.50
2018-07-19T05:09:24.531Z,247.50
2018-07-19T05:10:24.513Z,258.75
2018-07-19T05:11:24.499Z,253.12
2018-07-19T05:12:24.487Z,253.12
2018-07-19T05:13:24.495Z,258.75
2018-07-19T05:14:24.467Z,258.75
2018-07-19T05:15:24.456Z,264.38
2018-07-19T05:16:24.441Z,270.00
2018-07-19T05:17:24.433Z,270.00
2018-07-19T05:18:24.457Z,270.00
2018-07-19T05:19:24.407Z,275.62
2018-07-19T05:20:24.399Z,275.62
2018-07-19T05:21:24.388Z,275.62
2018-07-19T05:22:24.375Z,281.25
2018-07-19T05:23:24.366Z,281.25
2018-07-19T05:24:24.363Z,281.25
2018-07-19T05:25:24.343Z,286.88
2018-07-19T05:26:24.330Z,286.88
2018-07-19T05:27:24.367Z,286.88
2018-07-19T05:28:24.310Z,292.50
2018-07-19T05:29:24.309Z,292.50
2018-07-19T05:30:24.289Z,298.12
2018-07-19T05:31:24.275Z,298.12
2018-07-19T05:32:24.264Z,303.75
2018-07-19T05:33:24.255Z,303.75
2018-07-19T05:34:24.253Z,303.75
2018-07-19T05:35:24.231Z,309.38
2018-07-19T05:36:24.231Z,309.38
2018-07-19T05:37:24.210Z,309.38
2018-07-19T05:38:24.203Z,315.00
2018-07-19T05:39:24.196Z,315.00
2018-07-19T05:40:24.235Z,320.62
2018-07-19T05:41:24.167Z,320.62
2018-07-19T05:42:24.215Z,326.25
2018-07-19T05:43:24.150Z,326.25
2018-07-19T05:44:24.139Z,331.88
2018-07-19T05:45:24.139Z,331.88
2018-07-19T05:46:24.114Z,337.50
2018-07-19T05:47:24.142Z,343.12
2018-07-19T05:48:24.093Z,343.12
2018-07-19T05:49:24.084Z,348.75
2018-07-19T05:50:24.072Z,354.38
2018-07-19T05:51:24.061Z,354.38
2018-07-19T05:52:24.118Z,360.00
2018-07-19T05:53:24.055Z,365.62
2018-07-19T05:54:24.028Z,365.62
2018-07-19T05:55:24.036Z,371.25
2018-07-19T05:56:24.010Z,376.88
2018-07-19T05:57:23.999Z,382.50
2018-07-19T05:58:24.003Z,382.50
2018-07-19T05:59:23.978Z,388.12
2018-07-19T06:00:23.968Z,393.75
2018-07-19T06:01:23.953Z,393.75
2018-07-19T06:02:23.942Z,399.38
2018-07-19T06:03:23.949Z,399.38
2018-07-19T06:04:23.923Z,405.00
2018-07-19T06:05:23.912Z,405.00
2018-07-19T06:06:23.902Z,410.62
2018-07-19T06:07:23.908Z,416.25
2018-07-19T06:08:23.881Z,421.88
2018-07-19T06:09:23.872Z,421.88
2018-07-19T06:10:23.859Z,427.50
2018-07-19T06:11:23.847Z,427.50
2018-07-19T06:12:23.851Z,433.12
2018-07-19T06:13:23.848Z,438.75
2018-07-19T06:14:23.815Z,438.75
2018-07-19T06:15:23.804Z,444.38
2018-07-19T06:16:23.792Z,444.38
2018-07-19T06:17:23.782Z,450.00
2018-07-19T06:18:23.774Z,450.00
2018-07-19T06:19:23.782Z,455.62
2018-07-19T06:20:23.751Z,455.62
2018-07-19T06:21:23.740Z,461.25
2018-07-19T06:22:23.731Z,466.88
2018-07-19T06:23:23.717Z,478.12
2018-07-19T06:24:23.748Z,478.12
2018-07-19T06:25:23.698Z,478.12
2018-07-19T06:26:23.684Z,483.75
2018-07-19T06:27:23.676Z,483.75
2018-07-19T06:28:23.684Z,483.75
2018-07-19T06:29:23.654Z,489.38
2018-07-19T06:30:23.666Z,489.38
2018-07-19T06:31:23.636Z,495.00
2018-07-19T06:32:23.623Z,500.62
2018-07-19T06:33:23.610Z,500.62
2018-07-19T06:34:23.618Z,506.25
2018-07-19T06:35:23.589Z,511.88
2018-07-19T06:36:23.578Z,517.50
2018-07-19T06:37:23.570Z,523.12
2018-07-19T06:38:23.554Z,523.12
2018-07-19T06:39:23.547Z,523.12
2018-07-19T06:40:23.546Z,528.75
2018-07-19T06:41:23.538Z,534.38
2018-07-19T06:42:23.514Z,534.38
2018-07-19T06:43:23.500Z,540.00
2018-07-19T06:44:23.489Z,545.62
2018-07-19T06:45:23.497Z,545.62
2018-07-19T06:46:23.467Z,551.25
2018-07-19T06:47:23.457Z,556.88
2018-07-19T06:48:23.448Z,562.50
2018-07-19T06:49:23.451Z,568.12
2018-07-19T06:50:23.425Z,568.12
2018-07-19T06:51:23.429Z,573.75
2018-07-19T06:52:23.404Z,573.75
2018-07-19T06:53:23.394Z,579.38
2018-07-19T06:54:23.381Z,579.38
2018-07-19T06:55:23.371Z,585.00
2018-07-19T06:56:23.377Z,590.62
2018-07-19T06:57:23.354Z,601.88
2018-07-19T06:58:23.338Z,618.75
2018-07-19T06:59:23.329Z,675.00
2018-07-19T07:00:23.316Z,1018.12
2018-07-19T07:01:23.307Z,1305.00
2018-07-19T07:02:23.323Z,1366.88
2018-07-19T07:03:23.285Z,1417.50
2018-07-19T07:04:23.279Z,1451.25
2018-07-19T07:05:23.262Z,1473.75
2018-07-19T07:06:23.252Z,1468.12
2018-07-19T07:07:23.240Z,1496.25
2018-07-19T07:08:23.246Z,1501.88
2018-07-19T07:09:23.223Z,1468.12
2018-07-19T07:10:23.220Z,1558.12
2018-07-19T07:11:23.206Z,1518.75
2018-07-19T07:12:23.192Z,1541.25
2018-07-19T07:13:23.189Z,1530.00
2018-07-19T07:14:23.205Z,1530.00
2018-07-19T07:15:23.154Z,1546.88
2018-07-19T07:16:23.146Z,1563.75
2018-07-19T07:17:23.137Z,1608.75
2018-07-19T07:18:23.121Z,1608.75
2018-07-19T07:19:23.114Z,1591.88
2018-07-19T07:20:23.121Z,1614.38
2018-07-19T07:21:23.091Z,1642.50
2018-07-19T07:22:23.081Z,1676.25
2018-07-19T07:23:23.073Z,1704.38
2018-07-19T07:24:23.063Z,1726.88
2018-07-19T07:25:23.051Z,1738.12
2018-07-19T07:26:23.062Z,1760.62
2018-07-19T07:27:23.031Z,1800.00
2018-07-19T07:28:23.095Z,1788.75
2018-07-19T07:29:23.005Z,1805.62
2018-07-19T07:30:22.998Z,1845.00
2018-07-19T07:31:22.984Z,1895.62
2018-07-19T07:32:22.990Z,1884.38
2018-07-19T07:33:22.965Z,1895.62
2018-07-19T07:34:22.955Z,1895.62
2018-07-19T07:35:22.944Z,1906.88
2018-07-19T07:36:22.939Z,1884.38
2018-07-19T07:37:22.937Z,1861.88
2018-07-19T07:38:22.913Z,1918.12
2018-07-19T07:39:22.902Z,1991.25
2018-07-19T07:40:22.888Z,1985.62
2018-07-19T07:41:22.878Z,1890.00
2018-07-19T07:42:22.883Z,1957.50
2018-07-19T07:43:22.876Z,2013.75
2018-07-19T07:44:22.852Z,2064.38
2018-07-19T07:45:22.840Z,2058.75
2018-07-19T07:46:22.826Z,2098.12
2018-07-19T07:47:22.816Z,2064.38
2018-07-19T07:48:22.810Z,2025.00
2018-07-19T07:49:22.810Z,2047.50
2018-07-19T07:50:22.783Z,2103.75
2018-07-19T07:51:22.774Z,2115.00
2018-07-19T07:52:22.781Z,2131.88
2018-07-19T07:53:22.752Z,2160.00
2018-07-19T07:54:22.742Z,2126.25
2018-07-19T07:55:22.732Z,2092.50
2018-07-19T07:56:22.724Z,2103.75
2018-07-19T07:57:22.728Z,2160.00
2018-07-19T07:58:22.701Z,2188.12
2018-07-19T07:59:22.720Z,2289.38
2018-07-19T08:00:22.693Z,2334.38
2018-07-19T08:01:22.694Z,2317.50
2018-07-19T08:02:22.663Z,2255.62
2018-07-19T08:03:22.658Z,2283.75
2018-07-19T08:04:22.642Z,2362.50
2018-07-19T08:05:22.629Z,2351.25
2018-07-19T08:06:22.633Z,2396.25
2018-07-19T08:07:22.607Z,2413.12
2018-07-19T08:08:22.599Z,2418.75
2018-07-19T08:09:22.608Z,2356.88
2018-07-19T08:10:22.576Z,2356.88
2018-07-19T08:11:22.566Z,2300.62
2018-07-19T08:12:22.572Z,2334.38
2018-07-19T08:13:22.557Z,2345.62
2018-07-19T08:14:22.536Z,2508.75
2018-07-19T08:15:22.527Z,2548.12
2018-07-19T08:16:22.529Z,2542.50
2018-07-19T08:17:22.505Z,2446.88
2018-07-19T08:18:22.510Z,2486.25
2018-07-19T08:19:22.496Z,2536.88
2018-07-19T08:20:22.476Z,2542.50
2018-07-19T08:21:22.464Z,2638.12
2018-07-19T08:22:22.451Z,2671.88
2018-07-19T08:23:22.457Z,2671.88
2018-07-19T08:24:22.434Z,2739.38
2018-07-19T08:25:22.442Z,2784.38
2018-07-19T08:26:22.411Z,2767.50
2018-07-19T08:27:22.401Z,2790.00
2018-07-19T08:28:22.392Z,2857.50
2018-07-19T08:29:22.382Z,2733.75
2018-07-19T08:30:22.369Z,2767.50
2018-07-19T08:31:22.396Z,2885.62
2018-07-19T08:32:22.383Z,2795.62
2018-07-19T08:33:22.340Z,2705.62
2018-07-19T08:34:22.333Z,2840.62
2018-07-19T08:35:22.320Z,2947.50
2018-07-19T08:36:22.310Z,2812.50
2018-07-19T08:37:22.312Z,2812.50
2018-07-19T08:38:22.289Z,2998.12
2018-07-19T08:39:22.278Z,2863.12
2018-07-19T08:40:22.283Z,2716.88
2018-07-19T08:41:22.262Z,2947.50
2018-07-19T08:42:22.260Z,3093.75
2018-07-19T08:43:22.240Z,2947.50
2018-07-19T08:44:22.226Z,2913.75
2018-07-19T08:45:22.217Z,3110.62
2018-07-19T08:46:22.206Z,3234.38
2018-07-19T08:47:22.217Z,3144.38
2018-07-19T08:48:22.185Z,3183.75
2018-07-19T08:49:22.174Z,3223.12
2018-07-19T08:50:22.168Z,2520.00
2018-07-19T08:51:22.154Z,1895.62
2018-07-19T08:52:22.161Z,1833.75
2018-07-19T08:53:22.155Z,2621.25
2018-07-19T08:54:22.127Z,3408.75
2018-07-19T08:55:22.115Z,3476.25
2018-07-19T08:56:22.141Z,3178.12
2018-07-19T08:57:22.096Z,3015.00
2018-07-19T08:58:22.082Z,2981.25
2018-07-19T08:59:22.112Z,3195.00
2018-07-19T09:00:22.061Z,3318.75
2018-07-19T09:01:22.054Z,3093.75
2018-07-19T09:02:22.059Z,3065.62
2018-07-19T09:03:22.036Z,3020.62
2018-07-19T09:04:22.022Z,3116.25
2018-07-19T09:05:22.029Z,3313.12
2018-07-19T09:06:22.006Z,3318.75
2018-07-19T09:07:21.994Z,3363.75
2018-07-19T09:08:21.996Z,3448.12
2018-07-19T09:09:21.976Z,3318.75
2018-07-19T09:10:21.979Z,2250.00
2018-07-19T09:11:21.953Z,2266.88
2018-07-19T09:12:21.945Z,3150.00
2018-07-19T09:13:21.949Z,3470.62
2018-07-19T09:14:21.925Z,3481.88
2018-07-19T09:15:21.912Z,3391.88
2018-07-19T09:16:21.920Z,3346.88
2018-07-19T09:17:21.892Z,3285.00
2018-07-19T09:18:21.897Z,3335.62
2018-07-19T09:19:21.910Z,3296.25
2018-07-19T09:20:21.865Z,3408.75
2018-07-19T09:21:21.855Z,3594.38
2018-07-19T09:22:21.843Z,3611.25
2018-07-19T09:23:21.849Z,3616.88
2018-07-19T09:24:21.839Z,3656.25
2018-07-19T09:25:21.816Z,3628.12
2018-07-19T09:26:21.803Z,3538.12
2018-07-19T09:27:21.796Z,3346.88
2018-07-19T09:28:21.796Z,3206.25
2018-07-19T09:29:21.777Z,3481.88
2018-07-19T09:30:21.781Z,3375.00
2018-07-19T09:31:21.770Z,3307.50
2018-07-19T09:32:21.744Z,3144.38
2018-07-19T09:33:21.738Z,3251.25
2018-07-19T09:34:21.724Z,3352.50
2018-07-19T09:35:21.717Z,3611.25
2018-07-19T09:36:21.748Z,3571.88
2018-07-19T09:37:21.695Z,3341.25
2018-07-19T09:38:21.707Z,3335.62
2018-07-19T09:39:21.676Z,3330.00
2018-07-19T09:40:21.668Z,3296.25
2018-07-19T09:41:21.657Z,3346.88
2018-07-19T09:42:21.690Z,2221.88
2018-07-19T09:43:21.640Z,2958.75
2018-07-19T09:44:21.630Z,2896.88
2018-07-19T09:45:21.617Z,2587.50
2018-07-19T09:46:21.612Z,3127.50
2018-07-19T09:47:21.601Z,3622.50
2018-07-19T09:48:21.608Z,3577.50
2018-07-19T09:49:21.577Z,3588.75
2018-07-19T09:50:21.570Z,3628.12
2018-07-19T09:51:21.560Z,3600.00
2018-07-19T09:52:21.550Z,3538.12
2018-07-19T09:53:21.540Z,3600.00
2018-07-19T09:54:21.544Z,3808.12
2018-07-19T09:55:21.523Z,3459.38
2018-07-19T09:56:21.509Z,3009.38
2018-07-19T09:57:21.502Z,3245.62
2018-07-19T09:58:21.538Z,3588.75
2018-07-19T09:59:21.508Z,3774.38
2018-07-19T10:00:21.475Z,3836.25
2018-07-19T10:01:21.470Z,3864.38
2018-07-19T10:02:21.454Z,3819.38
2018-07-19T10:03:21.443Z,3628.12
2018-07-19T10:04:21.447Z,3661.88
2018-07-19T10:05:21.435Z,3729.38
2018-07-19T10:06:21.411Z,3813.75
2018-07-19T10:07:21.404Z,3825.00
2018-07-19T10:08:21.392Z,3718.12
2018-07-19T10:09:21.395Z,3645.00
2018-07-19T10:10:21.420Z,3774.38
2018-07-19T10:11:21.365Z,3943.12
2018-07-19T10:12:21.355Z,3915.00
2018-07-19T10:13:21.346Z,3796.88
2018-07-19T10:14:21.337Z,3847.50
2018-07-19T10:15:21.349Z,3881.25
2018-07-19T10:16:21.332Z,3841.88
2018-07-19T10:17:21.352Z,3836.25
2018-07-19T10:18:21.299Z,3853.12
2018-07-19T10:19:21.303Z,3892.50
2018-07-19T10:20:21.279Z,4016.25
2018-07-19T10:21:21.282Z,3976.88
2018-07-19T10:22:21.260Z,3915.00
2018-07-19T10:23:21.263Z,3988.12
2018-07-19T10:24:21.286Z,3954.38
2018-07-19T10:25:21.232Z,3943.12
2018-07-19T10:26:21.222Z,4055.62
2018-07-19T10:27:21.225Z,4027.50
2018-07-19T10:28:21.201Z,4117.50
2018-07-19T10:29:21.196Z,4038.75
2018-07-19T10:30:21.183Z,3999.38
2018-07-19T10:31:21.179Z,3954.38
2018-07-19T10:32:21.320Z,3875.62
2018-07-19T10:33:21.158Z,4033.12
2018-07-19T10:34:21.214Z,4072.50
2018-07-19T10:35:21.137Z,4016.25
2018-07-19T10:36:21.128Z,3847.50
2018-07-19T10:37:21.134Z,3898.12
2018-07-19T10:38:21.112Z,3915.00
2018-07-19T10:39:21.098Z,3931.88
2018-07-19T10:40:21.089Z,4055.62
2018-07-19T10:41:21.079Z,4005.00
2018-07-19T10:42:21.085Z,3796.88
2018-07-19T10:43:21.074Z,3858.75
2018-07-19T10:44:21.059Z,4005.00
2018-07-19T10:45:21.041Z,4128.75
2018-07-19T10:46:21.031Z,4291.88
2018-07-19T10:47:21.024Z,1760.62
2018-07-19T10:48:21.028Z,3296.25
2018-07-19T10:49:21.006Z,2508.75
2018-07-19T10:50:21.014Z,4033.12
2018-07-19T10:51:20.985Z,4224.38
2018-07-19T10:52:20.975Z,4235.62
2018-07-19T10:53:20.992Z,4044.38
2018-07-19T10:54:20.959Z,4111.88
2018-07-19T10:55:20.947Z,4218.75
2018-07-19T10:56:20.941Z,4381.88
2018-07-19T10:57:20.969Z,4089.38
2018-07-19T10:58:20.952Z,3588.75
2018-07-19T10:59:20.925Z,2148.75
2018-07-19T11:00:20.931Z,4314.38
2018-07-19T11:01:20.892Z,4297.50
2018-07-19T11:02:20.884Z,4140.00
2018-07-19T11:03:20.887Z,1507.50
2018-07-19T11:04:20.881Z,1395.00
2018-07-19T11:05:20.855Z,4173.75
2018-07-19T11:06:20.848Z,4111.88
2018-07-19T11:07:20.836Z,3982.50
2018-07-19T11:08:20.827Z,3960.00
2018-07-19T11:09:20.867Z,4100.62
2018-07-19T11:10:20.815Z,4258.12
2018-07-19T11:11:20.799Z,4218.75
2018-07-19T11:12:20.791Z,3937.50
2018-07-19T11:13:20.779Z,3746.25
2018-07-19T11:14:20.770Z,3976.88
2018-07-19T11:15:20.777Z,4010.62
2018-07-19T11:16:20.783Z,4050.00
2018-07-19T11:17:20.739Z,4280.62
2018-07-19T11:18:20.731Z,4280.62
2018-07-19T11:19:20.724Z,4213.12
2018-07-19T11:20:20.735Z,4308.75
2018-07-19T11:21:20.716Z,4230.00
2018-07-19T11:22:20.692Z,4145.62
2018-07-19T11:23:20.689Z,4314.38
2018-07-19T11:24:20.675Z,4438.12
2018-07-19T11:25:20.668Z,4443.75
2018-07-19T11:26:20.704Z,4438.12
2018-07-19T11:27:20.650Z,4500.00
2018-07-19T11:28:20.653Z,4455.00
2018-07-19T11:29:20.630Z,4173.75
2018-07-19T11:30:20.636Z,4432.50
2018-07-19T11:31:20.608Z,2773.12
2018-07-19T11:32:20.614Z,1479.38
2018-07-19T11:33:20.587Z,1361.25
2018-07-19T11:34:20.582Z,1293.75
2018-07-19T11:35:20.611Z,1260.00
2018-07-19T11:36:20.561Z,1271.25
2018-07-19T11:37:20.569Z,1310.62
2018-07-19T11:38:20.550Z,1344.38
2018-07-19T11:39:20.531Z,1451.25
2018-07-19T11:40:20.523Z,1749.38
2018-07-19T11:41:20.512Z,2266.88
2018-07-19T11:42:20.501Z,4629.38
2018-07-19T11:43:20.509Z,4668.75
2018-07-19T11:44:20.480Z,4449.38
2018-07-19T11:45:20.473Z,1996.88
2018-07-19T11:46:20.460Z,1507.50
2018-07-19T11:47:20.458Z,1440.00
2018-07-19T11:48:20.443Z,1411.88
2018-07-19T11:49:20.447Z,1743.75
2018-07-19T11:50:20.419Z,1878.75
2018-07-19T11:51:20.426Z,2092.50
2018-07-19T11:52:20.401Z,1732.50
2018-07-19T11:53:20.407Z,1417.50
2018-07-19T11:54:20.383Z,1321.88
2018-07-19T11:55:20.372Z,1361.25
2018-07-19T11:56:20.371Z,2671.88
2018-07-19T11:57:20.353Z,3819.38
2018-07-19T11:58:20.356Z,4359.38
2018-07-19T11:59:20.331Z,4213.12
2018-07-19T12:00:20.319Z,2025.00
2018-07-19T12:01:20.313Z,2306.25
2018-07-19T12:02:20.303Z,1451.25
2018-07-19T12:03:20.306Z,1389.38
2018-07-19T12:04:20.281Z,1355.62
2018-07-19T12:05:20.269Z,1513.12
2018-07-19T12:06:20.283Z,1839.38
2018-07-19T12:07:20.252Z,2390.62
2018-07-19T12:08:20.239Z,4595.62
2018-07-19T12:09:20.255Z,4516.88
2018-07-19T12:10:20.226Z,4398.75
2018-07-19T12:11:20.212Z,4038.75
2018-07-19T12:12:20.201Z,1665.00
2018-07-19T12:13:20.191Z,4117.50
2018-07-19T12:14:20.183Z,3706.88
2018-07-19T12:15:20.197Z,1445.62
2018-07-19T12:16:20.162Z,2356.88
2018-07-19T12:17:20.149Z,2475.00
2018-07-19T12:18:20.140Z,3920.62
2018-07-19T12:19:20.130Z,3948.75
2018-07-19T12:20:20.120Z,3729.38
2018-07-19T12:21:20.128Z,3864.38
2018-07-19T12:22:20.106Z,4100.62
2018-07-19T12:23:20.091Z,4134.38
2018-07-19T12:24:20.085Z,4185.00
2018-07-19T12:25:20.074Z,4100.62
2018-07-19T12:26:20.085Z,4173.75
2018-07-19T12:27:20.056Z,4213.12
2018-07-19T12:28:20.043Z,4213.12
2018-07-19T12:29:20.037Z,4218.75
2018-07-19T12:30:20.025Z,4044.38
2018-07-19T12:31:20.093Z,4111.88
2018-07-19T12:32:20.009Z,4246.88